Terminal Aerodrome Forecast
Issued by NWS Sterling, VA

Current Version | Previous Version | Graphics & Text | Print | Product List | Glossary On
Versions: 1 2 3 4 5 6 7 8 9 10 11 12 13 14 15 16 17 18 19 20 21 22 23 24 25 26 27 28 29 30
772
FTUS41 KLWX 180539
TAFDCA
TAF
KDCA 180539Z 1806/1912 26004KT P6SM BKN006
     FM181100 31005KT P6SM SCT250
     FM182300 16004KT P6SM FEW250=

USA.gov is the U.S. government's official web portal to all federal, state and local government web resources and services.